Time,TemperatureF,DewpointF,PressureIn,WindDirection,WindDirectionDegrees,WindSpeedMPH,WindSpeedGustMPH,Humidity,HourlyPrecipIn,Conditions,Clouds,dailyrainin,SoftwareType,DateUTC
2013-05-07 00:00:00,51.4,50.2,29.84,SSW,200,0.0,0.0,94,0.03,,,0.06,dv,2013-05-07 04:00:00,
2013-05-07 00:05:00,51.4,50.2,29.83,SSW,200,0.0,0.0,94,0.00,,,0.00,dv,2013-05-07 04:05:00,
2013-05-07 00:10:00,51.5,50.3,29.83,SSW,200,0.0,0.0,94,0.00,,,0.00,dv,2013-05-07 04:10:00,
2013-05-07 00:15:00,51.5,50.3,29.83,SSW,200,0.0,0.0,94,0.00,,,0.00,dv,2013-05-07 04:15:00,
2013-05-07 00:20:00,51.4,50.2,29.83,SSW,200,0.0,0.0,94,0.00,,,0.00,dv,2013-05-07 04:20:00,
2013-05-07 00:25:00,51.3,50.1,29.83,SSW,200,0.0,0.0,94,0.00,,,0.00,dv,2013-05-07 04:25:00,
2013-05-07 00:30:00,51.2,50.2,29.83,SSW,200,0.0,0.0,95,0.00,,,0.00,dv,2013-05-07 04:30:00,
2013-05-07 00:35:00,51.2,50.0,29.83,SSW,200,0.0,0.0,94,0.00,,,0.00,dv,2013-05-07 04:35:00,
2013-05-07 00:40:00,51.2,50.2,29.83,SSW,200,0.0,0.0,95,0.00,,,0.00,dv,2013-05-07 04:40:00,
2013-05-07 00:45:00,51.2,50.2,29.83,SSW,200,0.0,0.0,95,0.00,,,0.00,dv,2013-05-07 04:45:00,
2013-05-07 00:50:00,51.2,50.2,29.83,SSW,200,0.0,0.0,95,0.00,,,0.00,dv,2013-05-07 04:50:00,
2013-05-07 00:55:00,51.2,50.2,29.83,SSW,200,0.0,0.0,95,0.00,,,0.00,dv,2013-05-07 04:55:00,
2013-05-07 01:00:00,51.2,50.2,29.83,SSW,200,0.0,0.0,95,0.00,,,0.00,dv,2013-05-07 05:00:00,
2013-05-07 01:05:00,51.1,50.1,29.83,SSW,200,0.0,0.0,95,0.00,,,0.00,dv,2013-05-07 05:05:00,
2013-05-07 01:10:00,51.2,50.2,29.83,SSW,200,0.0,0.0,95,0.00,,,0.00,dv,2013-05-07 05:10:00,
2013-05-07 01:15:00,51.1,50.1,29.83,SSW,200,0.0,0.0,95,0.00,,,0.00,dv,2013-05-07 05:15:00,
2013-05-07 01:20:00,51.1,50.1,29.82,SSW,200,0.0,0.0,95,0.00,,,0.00,dv,2013-05-07 05:20:00,
2013-05-07 01:25:00,51.0,50.0,29.83,SSW,200,0.0,0.0,95,0.00,,,0.00,dv,2013-05-07 05:25:00,
2013-05-07 01:30:00,51.0,50.0,29.82,SSW,200,0.0,0.0,95,0.00,,,0.00,dv,2013-05-07 05:30:00,
2013-05-07 01:35:00,51.1,50.1,29.83,SSW,200,0.0,0.0,95,0.00,,,0.00,dv,2013-05-07 05:35:00,
2013-05-07 01:40:00,51.0,50.0,29.82,SSW,200,0.0,0.0,95,0.01,,,0.01,dv,2013-05-07 05:40:00,
2013-05-07 01:45:00,51.0,50.0,29.82,SSW,200,0.0,0.0,95,0.01,,,0.01,dv,2013-05-07 05:45:00,
2013-05-07 01:50:00,50.9,49.9,29.82,SSW,200,0.0,0.0,95,0.01,,,0.01,dv,2013-05-07 05:50:00,
2013-05-07 01:55:00,50.9,49.9,29.82,SSW,200,0.0,0.0,95,0.01,,,0.01,dv,2013-05-07 05:55:00,
2013-05-07 02:00:00,51.0,50.2,29.82,SSW,200,0.0,0.0,96,0.02,,,0.02,dv,2013-05-07 06:00:00,
2013-05-07 02:05:00,50.9,49.9,29.82,SSW,200,0.0,0.0,95,0.02,,,0.02,dv,2013-05-07 06:05:00,
2013-05-07 02:10:00,50.9,50.1,29.81,SSW,200,0.0,0.0,96,0.03,,,0.03,dv,2013-05-07 06:10:00,
2013-05-07 02:15:00,50.9,50.1,29.81,SSW,200,0.0,0.0,96,0.03,,,0.03,dv,2013-05-07 06:15:00,
2013-05-07 02:20:00,50.9,50.1,29.81,SSW,200,0.0,0.0,96,0.04,,,0.04,dv,2013-05-07 06:20:00,
2013-05-07 02:25:00,50.9,50.1,29.81,SSW,200,0.0,0.0,96,0.05,,,0.05,dv,2013-05-07 06:25:00,
2013-05-07 02:30:00,50.8,50.0,29.81,SSW,200,0.0,0.0,96,0.05,,,0.05,dv,2013-05-07 06:30:00,
2013-05-07 02:35:00,50.8,50.0,29.81,SSW,200,0.0,0.0,96,0.06,,,0.06,dv,2013-05-07 06:35:00,
2013-05-07 02:45:00,50.9,50.1,29.80,SSW,200,0.0,0.0,96,0.05,,,0.06,dv,2013-05-07 06:45:00,
2013-05-07 02:50:00,50.8,50.0,29.80,SSW,200,0.0,0.0,96,0.05,,,0.06,dv,2013-05-07 06:50:00,
2013-05-07 02:55:00,50.8,50.0,29.80,SSW,200,0.0,0.0,96,0.05,,,0.06,dv,2013-05-07 06:55:00,
2013-05-07 03:00:00,50.8,50.0,29.81,SSW,200,0.0,0.0,96,0.04,,,0.06,dv,2013-05-07 07:00:00,
2013-05-07 03:05:00,50.8,50.0,29.80,SSW,200,0.0,0.0,96,0.05,,,0.07,dv,2013-05-07 07:05:00,
2013-05-07 03:10:00,50.8,50.0,29.80,SSW,200,0.0,0.0,96,0.04,,,0.07,dv,2013-05-07 07:10:00,
2013-05-07 03:15:00,50.8,50.0,29.80,SSW,200,0.0,0.0,96,0.04,,,0.07,dv,2013-05-07 07:15:00,
2013-05-07 03:20:00,50.9,50.1,29.80,SSW,200,0.0,0.0,96,0.03,,,0.07,dv,2013-05-07 07:20:00,
2013-05-07 03:25:00,50.8,50.0,29.80,SSW,200,0.0,0.0,96,0.03,,,0.08,dv,2013-05-07 07:25:00,
2013-05-07 03:30:00,50.8,50.0,29.80,SSW,200,0.0,0.0,96,0.03,,,0.08,dv,2013-05-07 07:30:00,
2013-05-07 03:35:00,50.8,50.0,29.80,SSW,200,0.0,0.0,96,0.02,,,0.08,dv,2013-05-07 07:35:00,
2013-05-07 03:40:00,50.8,50.0,29.80,SSW,200,0.0,0.0,96,0.02,,,0.08,dv,2013-05-07 07:40:00,
2013-05-07 03:45:00,50.8,50.0,29.80,SSW,200,0.0,0.0,96,0.03,,,0.09,dv,2013-05-07 07:45:00,
2013-05-07 03:50:00,50.7,49.9,29.80,SSW,200,0.0,0.0,96,0.03,,,0.09,dv,2013-05-07 07:50:00,
2013-05-07 03:55:00,50.7,49.9,29.80,SSW,200,0.0,0.0,96,0.04,,,0.10,dv,2013-05-07 07:55:00,
2013-05-07 04:00:00,50.7,49.9,29.80,SSW,200,0.0,0.0,96,0.05,,,0.11,dv,2013-05-07 08:00:00,
2013-05-07 04:05:00,50.6,49.8,29.80,SSW,200,0.0,0.0,96,0.04,,,0.11,dv,2013-05-07 08:05:00,
2013-05-07 04:10:00,50.7,49.9,29.80,SSW,200,0.0,0.0,96,0.05,,,0.12,dv,2013-05-07 08:10:00,
2013-05-07 04:15:00,50.7,49.9,29.80,SSW,200,0.0,0.0,96,0.05,,,0.12,dv,2013-05-07 08:15:00,
2013-05-07 04:20:00,50.7,49.9,29.80,SSW,200,0.0,0.0,96,0.06,,,0.13,dv,2013-05-07 08:20:00,
2013-05-07 04:25:00,50.6,49.8,29.80,SSW,200,0.0,0.0,96,0.05,,,0.13,dv,2013-05-07 08:25:00,
2013-05-07 04:30:00,50.6,49.8,29.80,SSW,200,0.0,0.0,96,0.05,,,0.13,dv,2013-05-07 08:30:00,
2013-05-07 04:35:00,50.6,49.8,29.80,SSW,200,0.0,0.0,96,0.05,,,0.13,dv,2013-05-07 08:35:00,
2013-05-07 04:40:00,50.6,50.0,29.80,SSW,200,0.0,0.0,97,0.06,,,0.14,dv,2013-05-07 08:40:00,
2013-05-07 04:45:00,50.6,50.0,29.80,SSW,200,0.0,0.0,97,0.05,,,0.14,dv,2013-05-07 08:45:00,
2013-05-07 04:50:00,50.6,49.8,29.80,SSW,200,0.0,0.0,96,0.05,,,0.14,dv,2013-05-07 08:50:00,
2013-05-07 04:55:00,50.7,50.1,29.81,SSW,200,0.0,0.0,97,0.04,,,0.14,dv,2013-05-07 08:55:00,
2013-05-07 05:00:00,50.7,50.1,29.80,SSW,200,0.0,0.0,97,0.03,,,0.14,dv,2013-05-07 09:00:00,
2013-05-07 05:05:00,50.7,50.1,29.80,SSW,200,0.0,0.0,97,0.03,,,0.14,dv,2013-05-07 09:05:00,
2013-05-07 05:10:00,50.6,49.8,29.81,SSW,200,0.0,0.0,96,0.02,,,0.14,dv,2013-05-07 09:10:00,
2013-05-07 05:15:00,50.6,50.0,29.80,SSW,200,0.0,0.0,97,0.02,,,0.14,dv,2013-05-07 09:15:00,
2013-05-07 05:20:00,50.6,50.0,29.80,SSW,200,0.0,0.0,97,0.01,,,0.14,dv,2013-05-07 09:20:00,
2013-05-07 05:25:00,50.6,49.8,29.80,SSW,200,0.0,0.0,96,0.01,,,0.14,dv,2013-05-07 09:25:00,
2013-05-07 05:30:00,50.6,49.8,29.80,SSW,200,0.0,0.0,96,0.01,,,0.14,dv,2013-05-07 09:30:00,
2013-05-07 05:35:00,50.5,49.7,29.80,SSW,200,0.0,0.0,96,0.01,,,0.14,dv,2013-05-07 09:35:00,
2013-05-07 05:40:00,50.4,49.6,29.80,SSW,200,0.0,0.0,96,0.00,,,0.14,dv,2013-05-07 09:40:00,
2013-05-07 05:45:00,50.3,49.7,29.80,SSW,200,0.0,0.0,97,0.00,,,0.14,dv,2013-05-07 09:45:00,
2013-05-07 05:50:00,50.4,49.8,29.81,SSW,200,0.0,0.0,97,0.00,,,0.14,dv,2013-05-07 09:50:00,
2013-05-07 05:55:00,50.3,49.7,29.81,SSW,200,0.0,0.0,97,0.00,,,0.14,dv,2013-05-07 09:55:00,
2013-05-07 06:00:00,50.3,49.7,29.81,SSW,200,0.0,0.0,97,0.00,,,0.14,dv,2013-05-07 10:00:00,
2013-05-07 06:05:00,50.4,49.6,29.81,SSW,200,0.0,0.0,96,0.00,,,0.14,dv,2013-05-07 10:05:00,
2013-05-07 06:10:00,50.5,49.9,29.81,SSW,200,0.0,0.0,97,0.00,,,0.14,dv,2013-05-07 10:10:00,
2013-05-07 06:15:00,50.4,49.8,29.81,SSW,200,0.0,0.0,97,0.00,,,0.14,dv,2013-05-07 10:15:00,
2013-05-07 06:20:00,50.4,49.8,29.81,SSW,200,0.0,0.0,97,0.00,,,0.14,dv,2013-05-07 10:20:00,
2013-05-07 06:25:00,50.5,49.9,29.81,SSW,200,0.0,0.0,97,0.00,,,0.14,dv,2013-05-07 10:25:00,
2013-05-07 06:30:00,50.4,49.8,29.81,SSW,200,0.0,0.0,97,0.00,,,0.14,dv,2013-05-07 10:30:00,
2013-05-07 06:35:00,50.3,49.7,29.81,SSW,200,0.0,0.0,97,0.00,,,0.14,dv,2013-05-07 10:35:00,
2013-05-07 06:40:00,50.2,49.6,29.81,SSW,200,0.0,0.0,97,0.00,,,0.14,dv,2013-05-07 10:40:00,
2013-05-07 06:45:00,50.1,49.5,29.82,SSW,200,0.0,0.0,97,0.00,,,0.14,dv,2013-05-07 10:45:00,
2013-05-07 06:50:00,49.9,49.1,29.82,SSW,200,0.0,0.0,96,0.00,,,0.14,dv,2013-05-07 10:50:00,
2013-05-07 06:55:00,49.8,49.0,29.81,SSW,200,0.0,0.0,96,0.00,,,0.14,dv,2013-05-07 10:55:00,
2013-05-07 07:00:00,49.8,49.0,29.82,SSW,200,0.0,0.0,96,0.00,,,0.14,dv,2013-05-07 11:00:00,
2013-05-07 07:05:00,49.6,48.8,29.83,SSW,200,0.0,0.0,96,0.00,,,0.14,dv,2013-05-07 11:05:00,
2013-05-07 07:10:00,49.4,48.6,29.83,SSW,200,0.0,0.0,96,0.00,,,0.14,dv,2013-05-07 11:10:00,
2013-05-07 07:20:00,49.0,48.2,29.83,SSW,200,0.0,0.0,96,0.00,,,0.14,dv,2013-05-07 11:20:00,
2013-05-07 07:25:00,48.9,48.1,29.83,SSW,200,0.0,0.0,96,0.00,,,0.14,dv,2013-05-07 11:25:00,
2013-05-07 07:30:00,48.8,48.0,29.84,SSW,200,0.0,0.0,96,0.00,,,0.14,dv,2013-05-07 11:30:00,
2013-05-07 07:35:00,48.7,47.9,29.83,SSW,200,0.0,0.0,96,0.00,,,0.14,dv,2013-05-07 11:35:00,
2013-05-07 07:40:00,48.7,47.9,29.84,SSW,200,0.0,0.0,96,0.00,,,0.14,dv,2013-05-07 11:40:00,
2013-05-07 07:45:00,48.8,48.0,29.84,SSW,200,0.0,0.0,96,0.00,,,0.14,dv,2013-05-07 11:45:00,
2013-05-07 07:50:00,48.8,48.0,29.84,SSW,200,0.0,0.0,96,0.00,,,0.14,dv,2013-05-07 11:50:00,
2013-05-07 07:55:00,48.9,48.1,29.84,SSW,200,0.0,0.0,96,0.00,,,0.14,dv,2013-05-07 11:55:00,
2013-05-07 08:00:00,49.0,48.2,29.85,SSW,200,0.0,0.0,96,0.00,,,0.14,dv,2013-05-07 12:00:00,
2013-05-07 08:05:00,49.1,48.5,29.85,SSW,200,0.0,0.0,97,0.00,,,0.14,dv,2013-05-07 12:05:00,
2013-05-07 08:10:00,49.3,48.7,29.85,SSW,200,0.0,0.0,97,0.00,,,0.14,dv,2013-05-07 12:10:00,
2013-05-07 08:15:00,49.4,48.8,29.86,SSW,200,0.0,0.0,97,0.00,,,0.14,dv,2013-05-07 12:15:00,
2013-05-07 08:20:00,49.5,48.9,29.85,SSW,200,0.0,0.0,97,0.00,,,0.14,dv,2013-05-07 12:20:00,
2013-05-07 08:25:00,49.7,49.1,29.86,SSW,200,0.0,0.0,97,0.00,,,0.14,dv,2013-05-07 12:25:00,
2013-05-07 08:30:00,49.7,49.1,29.86,SSW,200,0.0,0.0,97,0.00,,,0.14,dv,2013-05-07 12:30:00,
2013-05-07 08:35:00,49.9,49.3,29.86,SSW,200,0.0,0.0,97,0.00,,,0.14,dv,2013-05-07 12:35:00,
2013-05-07 08:40:00,50.0,49.4,29.86,SSW,200,0.0,0.0,97,0.00,,,0.14,dv,2013-05-07 12:40:00,
2013-05-07 08:45:00,50.1,49.5,29.87,SSW,200,0.0,0.0,97,0.00,,,0.14,dv,2013-05-07 12:45:00,
2013-05-07 08:50:00,50.3,49.7,29.87,SSW,200,0.0,0.0,97,0.00,,,0.14,dv,2013-05-07 12:50:00,
2013-05-07 08:55:00,50.8,50.2,29.87,SSW,200,0.0,0.0,97,0.00,,,0.14,dv,2013-05-07 12:55:00,
2013-05-07 09:00:00,51.2,50.6,29.87,SSW,200,0.0,0.0,97,0.00,,,0.14,dv,2013-05-07 13:00:00,
2013-05-07 09:05:00,51.4,50.8,29.88,SSW,200,0.0,0.0,97,0.00,,,0.14,dv,2013-05-07 13:05:00,
2013-05-07 09:10:00,51.6,51.0,29.88,SSW,200,0.0,0.0,97,0.00,,,0.14,dv,2013-05-07 13:10:00,
2013-05-07 09:15:00,51.7,51.1,29.88,SSW,200,0.0,0.0,97,0.00,,,0.14,dv,2013-05-07 13:15:00,
2013-05-07 09:20:00,51.8,51.2,29.88,SSW,200,0.0,0.0,97,0.00,,,0.14,dv,2013-05-07 13:20:00,
2013-05-07 09:25:00,51.9,51.3,29.88,SSW,200,0.0,0.0,97,0.00,,,0.14,dv,2013-05-07 13:25:00,
2013-05-07 09:30:00,52.1,51.5,29.88,SSW,200,0.0,0.0,97,0.00,,,0.14,dv,2013-05-07 13:30:00,
2013-05-07 09:35:00,52.3,51.7,29.88,SSW,200,0.0,0.0,97,0.00,,,0.14,dv,2013-05-07 13:35:00,
2013-05-07 09:40:00,52.4,51.8,29.88,SSW,200,0.0,0.0,97,0.00,,,0.14,dv,2013-05-07 13:40:00,
2013-05-07 09:45:00,52.5,51.9,29.88,SSW,200,0.0,0.0,97,0.00,,,0.14,dv,2013-05-07 13:45:00,
2013-05-07 09:50:00,52.6,52.0,29.88,SSW,200,0.0,0.0,97,0.00,,,0.14,dv,2013-05-07 13:50:00,
2013-05-07 09:55:00,52.9,52.5,29.88,SSW,200,0.0,0.0,98,0.00,,,0.14,dv,2013-05-07 13:55:00,
2013-05-07 10:00:00,53.2,52.8,29.88,SSW,200,0.0,0.0,98,0.00,,,0.14,dv,2013-05-07 14:00:00,
2013-05-07 10:05:00,53.6,53.0,29.88,SSW,200,0.0,0.0,97,0.00,,,0.14,dv,2013-05-07 14:05:00,
2013-05-07 10:10:00,53.7,53.3,29.88,SSW,200,0.0,0.0,98,0.00,,,0.14,dv,2013-05-07 14:10:00,
2013-05-07 10:15:00,53.8,53.4,29.89,SSW,200,0.0,0.0,98,0.00,,,0.14,dv,2013-05-07 14:15:00,
2013-05-07 10:20:00,53.8,53.4,29.88,SSW,200,0.0,0.0,98,0.00,,,0.14,dv,2013-05-07 14:20:00,
2013-05-07 10:25:00,53.9,53.5,29.89,SSW,200,0.0,0.0,98,0.00,,,0.14,dv,2013-05-07 14:25:00,
2013-05-07 10:30:00,54.0,53.6,29.88,SSW,200,0.0,0.0,98,0.00,,,0.14,dv,2013-05-07 14:30:00,
2013-05-07 10:35:00,54.3,53.9,29.89,SSW,200,0.0,0.0,98,0.00,,,0.14,dv,2013-05-07 14:35:00,
2013-05-07 10:40:00,54.4,54.0,29.88,SSW,200,0.0,0.0,98,0.00,,,0.14,dv,2013-05-07 14:40:00,
2013-05-07 10:45:00,54.6,54.2,29.89,SSW,200,0.0,0.0,98,0.00,,,0.14,dv,2013-05-07 14:45:00,
2013-05-07 10:50:00,54.5,54.1,29.89,SSW,200,1.6,1.6,98,0.00,,,0.14,dv,2013-05-07 14:50:00,
2013-05-07 10:55:00,54.5,54.1,29.89,SSW,200,0.0,0.0,98,0.00,,,0.14,dv,2013-05-07 14:55:00,
2013-05-07 11:00:00,54.5,53.9,29.89,SSW,200,0.0,0.0,97,0.00,,,0.14,dv,2013-05-07 15:00:00,
2013-05-07 11:05:00,54.6,54.0,29.89,SSW,200,0.0,0.0,97,0.00,,,0.14,dv,2013-05-07 15:05:00,
2013-05-07 11:10:00,54.8,54.2,29.89,SSW,200,0.0,0.0,97,0.00,,,0.14,dv,2013-05-07 15:10:00,
2013-05-07 11:15:00,55.0,54.4,29.89,SSW,200,1.6,1.6,97,0.00,,,0.14,dv,2013-05-07 15:15:00,
2013-05-07 11:20:00,55.4,54.8,29.89,SE,135,1.6,1.6,97,0.00,,,0.14,dv,2013-05-07 15:20:00,
2013-05-07 11:25:00,55.7,54.6,29.89,SE,135,1.6,1.6,95,0.00,,,0.14,dv,2013-05-07 15:25:00,
2013-05-07 11:30:00,56.3,55.2,29.89,West,281,4.8,4.8,95,0.00,,,0.14,dv,2013-05-07 15:30:00,
2013-05-07 11:35:00,57.0,55.9,29.89,WNW,301,1.6,1.6,95,0.00,,,0.14,dv,2013-05-07 15:35:00,
2013-05-07 11:40:00,57.2,55.5,29.89,WNW,300,1.6,1.6,92,0.00,,,0.14,dv,2013-05-07 15:40:00,
2013-05-07 11:45:00,57.2,55.2,29.89,WNW,296,1.6,1.6,91,0.00,,,0.14,dv,2013-05-07 15:45:00,
2013-05-07 11:50:00,57.3,55.3,29.89,WNW,296,0.0,0.0,91,0.00,,,0.14,dv,2013-05-07 15:50:00,
2013-05-07 11:55:00,57.5,55.1,29.88,WNW,296,1.6,1.6,89,0.00,,,0.14,dv,2013-05-07 15:55:00,
2013-05-07 12:00:00,57.5,54.4,29.88,WSW,239,1.6,1.6,86,0.00,,,0.14,dv,2013-05-07 16:00:00,
2013-05-07 12:05:00,57.6,54.2,29.89,SSW,202,4.8,4.8,85,0.00,,,0.14,dv,2013-05-07 16:05:00,
2013-05-07 12:10:00,57.7,54.1,29.88,West,266,3.2,3.2,84,0.00,,,0.14,dv,2013-05-07 16:10:00,
2013-05-07 12:15:00,58.0,54.4,29.88,WSW,241,3.2,3.2,84,0.00,,,0.14,dv,2013-05-07 16:15:00,
2013-05-07 12:20:00,58.3,55.1,29.88,WSW,242,0.0,0.0,86,0.00,,,0.14,dv,2013-05-07 16:20:00,
2013-05-07 12:25:00,58.7,55.3,29.88,WSW,242,0.0,0.0,85,0.00,,,0.14,dv,2013-05-07 16:25:00,
2013-05-07 12:30:00,59.2,55.8,29.88,WSW,241,1.6,1.6,85,0.00,,,0.14,dv,2013-05-07 16:30:00,
2013-05-07 12:35:00,60.1,56.7,29.88,WSW,241,3.2,3.2,85,0.00,,,0.14,dv,2013-05-07 16:35:00,
2013-05-07 12:40:00,60.8,56.8,29.88,SSW,194,4.8,4.8,83,0.00,,,0.14,dv,2013-05-07 16:40:00,
2013-05-07 12:45:00,61.2,56.7,29.87,SSW,195,1.6,1.6,81,0.00,,,0.14,dv,2013-05-07 16:45:00,
2013-05-07 12:50:00,61.7,56.7,29.87,SSW,195,0.0,0.0,79,0.00,,,0.14,dv,2013-05-07 16:50:00,
2013-05-07 12:55:00,61.8,56.8,29.87,East,90,3.2,3.2,79,0.00,,,0.14,dv,2013-05-07 16:55:00,
2013-05-07 13:00:00,62.1,56.5,29.87,ESE,115,1.6,1.6,77,0.00,,,0.14,dv,2013-05-07 17:00:00,
2013-05-07 13:05:00,62.5,56.4,29.87,ESE,115,0.0,0.0,75,0.00,,,0.14,dv,2013-05-07 17:05:00,
2013-05-07 13:10:00,62.7,55.7,29.87,West,274,3.2,3.2,72,0.00,,,0.14,dv,2013-05-07 17:10:00,
2013-05-07 13:15:00,62.8,56.1,29.87,North,356,3.2,3.2,73,0.00,,,0.14,dv,2013-05-07 17:15:00,
2013-05-07 13:20:00,62.9,55.9,29.87,East,87,3.2,3.2,72,0.00,,,0.14,dv,2013-05-07 17:20:00,
2013-05-07 13:25:00,62.9,55.6,29.87,East,79,3.2,3.2,71,0.00,,,0.14,dv,2013-05-07 17:25:00,
2013-05-07 13:30:00,63.1,54.9,29.87,East,79,0.0,0.0,68,0.00,,,0.14,dv,2013-05-07 17:30:00,
2013-05-07 13:35:00,63.1,55.2,29.87,SSW,211,4.8,4.8,69,0.00,,,0.14,dv,2013-05-07 17:35:00,
2013-05-07 13:40:00,63.0,55.1,29.87,North,353,3.2,3.2,69,0.00,,,0.14,dv,2013-05-07 17:40:00,
2013-05-07 13:45:00,62.9,55.0,29.87,North,353,1.6,1.6,69,0.00,,,0.14,dv,2013-05-07 17:45:00,
2013-05-07 13:50:00,62.9,54.7,29.87,North,353,1.6,1.6,68,0.00,,,0.14,dv,2013-05-07 17:50:00,
2013-05-07 13:55:00,62.9,54.7,29.88,North,353,1.6,1.6,68,0.00,,,0.14,dv,2013-05-07 17:55:00,
2013-05-07 14:00:00,63.0,55.1,29.87,North,353,0.0,0.0,69,0.00,,,0.14,dv,2013-05-07 18:00:00,
2013-05-07 14:05:00,63.4,55.2,29.87,North,352,1.6,1.6,68,0.00,,,0.14,dv,2013-05-07 18:05:00,
2013-05-07 14:10:00,63.9,56.5,29.87,North,352,0.0,0.0,71,0.00,,,0.14,dv,2013-05-07 18:10:00,
2013-05-07 14:15:00,64.4,57.6,29.87,WNW,303,3.2,3.2,73,0.00,,,0.14,dv,2013-05-07 18:15:00,
2013-05-07 14:20:00,64.6,55.7,29.87,NNW,333,6.4,6.4,66,0.00,,,0.14,dv,2013-05-07 18:20:00,
2013-05-07 14:25:00,64.7,55.8,29.87,NW,304,4.8,4.8,66,0.00,,,0.14,dv,2013-05-07 18:25:00,
2013-05-07 14:30:00,64.6,54.7,29.87,North,0,1.6,1.6,63,0.00,,,0.14,dv,2013-05-07 18:30:00,
2013-05-07 14:35:00,64.7,55.8,29.87,North,0,1.6,1.6,66,0.00,,,0.14,dv,2013-05-07 18:35:00,
2013-05-07 14:40:00,64.7,55.5,29.87,SSE,148,6.4,6.4,65,0.00,,,0.14,dv,2013-05-07 18:40:00,
2013-05-07 14:45:00,64.7,54.5,29.87,West,273,1.6,1.6,62,0.00,,,0.14,dv,2013-05-07 18:45:00,
2013-05-07 14:50:00,64.8,55.5,29.87,WSW,249,1.6,1.6,65,0.00,,,0.14,dv,2013-05-07 18:50:00,
2013-05-07 14:55:00,65.1,56.5,29.87,WSW,247,1.6,1.6,67,0.00,,,0.14,dv,2013-05-07 18:55:00,
2013-05-07 15:00:00,65.4,55.8,29.87,NW,306,4.8,4.8,64,0.00,,,0.14,dv,2013-05-07 19:00:00,
2013-05-07 15:05:00,65.8,56.8,29.86,South,189,3.2,3.2,66,0.00,,,0.14,dv,2013-05-07 19:05:00,
2013-05-07 15:10:00,66.2,57.2,29.87,SW,225,1.6,1.6,66,0.00,,,0.14,dv,2013-05-07 19:10:00,
2013-05-07 15:15:00,66.7,57.0,29.86,West,267,6.4,6.4,64,0.00,,,0.14,dv,2013-05-07 19:15:00,
2013-05-07 15:20:00,67.0,56.6,29.86,WNW,287,4.8,4.8,62,0.00,,,0.14,dv,2013-05-07 19:20:00,
2013-05-07 15:25:00,67.1,57.1,29.85,SSW,195,3.2,3.2,63,0.00,,,0.14,dv,2013-05-07 19:25:00,
2013-05-07 15:30:00,67.2,57.1,29.85,WSW,247,6.4,6.4,63,0.00,,,0.14,dv,2013-05-07 19:30:00,
2013-05-07 15:35:00,67.5,57.1,29.86,SSE,159,3.2,3.2,62,0.00,,,0.14,dv,2013-05-07 19:35:00,
2013-05-07 15:40:00,67.5,56.0,29.85,East,97,4.8,4.8,59,0.00,,,0.14,dv,2013-05-07 19:40:00,
2013-05-07 15:45:00,67.5,56.0,29.85,East,92,3.2,3.2,59,0.00,,,0.14,dv,2013-05-07 19:45:00,
2013-05-07 15:50:00,67.5,57.1,29.84,WSW,238,3.2,3.2,62,0.00,,,0.14,dv,2013-05-07 19:50:00,
2013-05-07 15:55:00,67.8,56.3,29.84,SE,128,4.8,4.8,59,0.00,,,0.14,dv,2013-05-07 19:55:00,
2013-05-07 16:00:00,67.8,56.7,29.85,West,280,8.1,8.1,60,0.00,,,0.14,dv,2013-05-07 20:00:00,
2013-05-07 16:05:00,67.6,56.1,29.85,SSE,148,11.3,11.3,59,0.00,,,0.14,dv,2013-05-07 20:05:00,
2013-05-07 16:10:00,67.3,56.6,29.85,SSW,209,6.4,6.4,61,0.00,,,0.14,dv,2013-05-07 20:10:00,
2013-05-07 16:15:00,67.1,56.7,29.84,SSW,209,1.6,1.6,62,0.00,,,0.14,dv,2013-05-07 20:15:00,
2013-05-07 16:20:00,67.2,56.8,29.84,SSW,208,1.6,1.6,62,0.00,,,0.14,dv,2013-05-07 20:20:00,
2013-05-07 16:25:00,67.3,56.9,29.84,SE,126,3.2,3.2,62,0.00,,,0.14,dv,2013-05-07 20:25:00,
2013-05-07 16:30:00,67.2,56.1,29.84,WSW,245,1.6,1.6,60,0.00,,,0.14,dv,2013-05-07 20:30:00,
2013-05-07 16:35:00,66.9,55.8,29.84,West,274,4.8,4.8,60,0.00,,,0.14,dv,2013-05-07 20:35:00,
2013-05-07 16:40:00,66.7,56.0,29.84,East,91,3.2,3.2,61,0.00,,,0.14,dv,2013-05-07 20:40:00,
2013-05-07 16:45:00,66.5,56.2,29.84,West,273,4.8,4.8,62,0.00,,,0.14,dv,2013-05-07 20:45:00,
2013-05-07 16:50:00,66.3,56.3,29.84,NW,307,8.1,8.1,63,0.00,,,0.14,dv,2013-05-07 20:50:00,
2013-05-07 16:55:00,66.1,55.1,29.84,South,174,8.1,8.1,60,0.00,,,0.14,dv,2013-05-07 20:55:00,
2013-05-07 17:00:00,66.3,55.3,29.84,SSE,155,6.4,6.4,60,0.00,,,0.14,dv,2013-05-07 21:00:00,
2013-05-07 17:05:00,66.8,56.1,29.83,NW,316,9.7,9.7,61,0.00,,,0.14,dv,2013-05-07 21:05:00,
2013-05-07 17:10:00,67.2,56.1,29.84,SSW,206,3.2,3.2,60,0.00,,,0.14,dv,2013-05-07 21:10:00,
2013-05-07 17:15:00,67.6,56.5,29.84,WNW,298,8.1,8.1,60,0.00,,,0.14,dv,2013-05-07 21:15:00,
2013-05-07 17:20:00,67.8,57.0,29.84,WSW,243,8.1,8.1,61,0.00,,,0.14,dv,2013-05-07 21:20:00,
2013-05-07 17:25:00,67.9,57.1,29.84,WNW,283,9.7,9.7,61,0.00,,,0.14,dv,2013-05-07 21:25:00,
2013-05-07 17:30:00,67.9,57.1,29.85,WNW,283,6.4,6.4,61,0.00,,,0.14,dv,2013-05-07 21:30:00,
2013-05-07 17:35:00,67.8,57.0,29.85,West,270,8.1,8.1,61,0.00,,,0.14,dv,2013-05-07 21:35:00,
2013-05-07 17:40:00,67.8,57.0,29.84,NW,324,6.4,6.4,61,0.00,,,0.14,dv,2013-05-07 21:40:00,
2013-05-07 17:45:00,67.7,56.9,29.85,NNE,32,1.6,1.6,61,0.00,,,0.14,dv,2013-05-07 21:45:00,
2013-05-07 17:50:00,67.7,57.6,29.85,NE,34,3.2,3.2,63,0.00,,,0.14,dv,2013-05-07 21:50:00,
2013-05-07 17:55:00,67.5,56.4,29.85,SSW,197,8.1,8.1,60,0.00,,,0.14,dv,2013-05-07 21:55:00,
2013-05-07 18:00:00,67.2,56.8,29.85,West,277,4.8,4.8,62,0.00,,,0.14,dv,2013-05-07 22:00:00,
2013-05-07 18:05:00,66.9,56.2,29.84,SW,234,3.2,3.2,61,0.00,,,0.14,dv,2013-05-07 22:05:00,
2013-05-07 18:10:00,66.8,56.1,29.85,East,94,6.4,6.4,61,0.00,,,0.14,dv,2013-05-07 22:10:00,
2013-05-07 18:15:00,66.7,56.0,29.85,SSW,195,1.6,1.6,61,0.00,,,0.14,dv,2013-05-07 22:15:00,
2013-05-07 18:20:00,66.7,56.0,29.85,West,277,4.8,4.8,61,0.00,,,0.14,dv,2013-05-07 22:20:00,
2013-05-07 18:25:00,66.8,56.1,29.85,West,272,3.2,3.2,61,0.00,,,0.14,dv,2013-05-07 22:25:00,
2013-05-07 18:30:00,66.9,55.5,29.85,ESE,118,4.8,4.8,59,0.00,,,0.14,dv,2013-05-07 22:30:00,
2013-05-07 18:35:00,67.0,55.6,29.84,WNW,298,1.6,1.6,59,0.00,,,0.14,dv,2013-05-07 22:35:00,
2013-05-07 18:40:00,67.1,56.7,29.85,NW,313,1.6,1.6,62,0.00,,,0.14,dv,2013-05-07 22:40:00,
2013-05-07 18:45:00,67.1,55.7,29.84,NNE,29,4.8,4.8,59,0.00,,,0.14,dv,2013-05-07 22:45:00,
2013-05-07 18:50:00,67.1,55.7,29.84,WNW,293,1.6,1.6,59,0.00,,,0.14,dv,2013-05-07 22:50:00,
2013-05-07 18:55:00,67.1,56.0,29.85,SSE,161,3.2,3.2,60,0.00,,,0.14,dv,2013-05-07 22:55:00,
2013-05-07 19:00:00,67.1,56.0,29.84,NNW,339,3.2,3.2,60,0.00,,,0.14,dv,2013-05-07 23:00:00,
2013-05-07 19:05:00,67.0,55.9,29.84,WSW,247,3.2,3.2,60,0.00,,,0.14,dv,2013-05-07 23:05:00,
2013-05-07 19:10:00,67.0,55.6,29.85,WSW,253,1.6,1.6,59,0.00,,,0.14,dv,2013-05-07 23:10:00,
2013-05-07 19:15:00,66.9,55.1,29.85,North,11,6.4,6.4,58,0.00,,,0.14,dv,2013-05-07 23:15:00,
2013-05-07 19:20:00,66.8,55.7,29.85,SW,234,6.4,6.4,60,0.00,,,0.14,dv,2013-05-07 23:20:00,
2013-05-07 19:25:00,66.6,55.2,29.85,NW,326,6.4,6.4,59,0.00,,,0.14,dv,2013-05-07 23:25:00,
2013-05-07 19:30:00,66.3,55.3,29.85,West,267,3.2,3.2,60,0.00,,,0.14,dv,2013-05-07 23:30:00,
2013-05-07 19:35:00,66.0,54.7,29.85,WNW,298,4.8,4.8,59,0.00,,,0.14,dv,2013-05-07 23:35:00,
2013-05-07 19:40:00,65.7,54.4,29.86,NW,314,4.8,4.8,59,0.00,,,0.14,dv,2013-05-07 23:40:00,
2013-05-07 19:45:00,65.4,54.4,29.86,NW,314,1.6,1.6,60,0.00,,,0.14,dv,2013-05-07 23:45:00,
2013-05-07 19:50:00,65.1,54.5,29.86,NW,313,1.6,1.6,61,0.00,,,0.14,dv,2013-05-07 23:50:00,
2013-05-07 19:55:00,64.8,54.6,29.87,NW,316,0.0,0.0,62,0.00,,,0.14,dv,2013-05-07 23:55:00,
2013-05-07 20:00:00,64.5,54.0,29.87,NW,316,0.0,0.0,61,0.00,,,0.14,dv,2013-05-08 00:00:00,
2013-05-07 20:05:00,64.4,54.9,29.87,NW,315,0.0,0.0,64,0.00,,,0.14,dv,2013-05-08 00:05:00,
2013-05-07 20:10:00,64.0,54.5,29.87,WNW,294,1.6,1.6,64,0.00,,,0.14,dv,2013-05-08 00:10:00,
2013-05-07 20:20:00,63.3,53.5,29.88,WSW,250,6.4,6.4,63,0.00,,,0.14,dv,2013-05-08 00:20:00,
2013-05-07 20:25:00,62.9,53.1,29.89,South,184,4.8,4.8,63,0.00,,,0.14,dv,2013-05-08 00:25:00,
2013-05-07 20:30:00,62.6,53.5,29.89,NW,309,3.2,3.2,65,0.00,,,0.14,dv,2013-05-08 00:30:00,
2013-05-07 20:35:00,62.2,53.4,29.89,WNW,294,3.2,3.2,66,0.00,,,0.14,dv,2013-05-08 00:35:00,
2013-05-07 20:40:00,61.9,52.5,29.89,NE,51,3.2,3.2,64,0.00,,,0.14,dv,2013-05-08 00:40:00,
2013-05-07 20:45:00,61.5,52.8,29.90,NW,313,1.6,1.6,66,0.00,,,0.14,dv,2013-05-08 00:45:00,
2013-05-07 20:50:00,61.3,53.2,29.89,WNW,300,3.2,3.2,68,0.00,,,0.14,dv,2013-05-08 00:50:00,
2013-05-07 20:55:00,61.1,52.7,29.90,WNW,303,3.2,3.2,67,0.00,,,0.14,dv,2013-05-08 00:55:00,
2013-05-07 21:00:00,60.8,52.7,29.90,West,279,3.2,3.2,68,0.00,,,0.14,dv,2013-05-08 01:00:00,
2013-05-07 21:05:00,60.6,52.8,29.90,West,279,0.0,0.0,69,0.00,,,0.14,dv,2013-05-08 01:05:00,
2013-05-07 21:10:00,60.3,52.8,29.90,WNW,287,1.6,1.6,70,0.00,,,0.14,dv,2013-05-08 01:10:00,
2013-05-07 21:15:00,60.1,52.9,29.90,WNW,295,0.0,0.0,71,0.00,,,0.14,dv,2013-05-08 01:15:00,
2013-05-07 21:20:00,59.9,52.7,29.91,NW,304,0.0,0.0,71,0.00,,,0.14,dv,2013-05-08 01:20:00,
2013-05-07 21:25:00,59.8,52.9,29.91,NW,304,0.0,0.0,72,0.00,,,0.14,dv,2013-05-08 01:25:00,
2013-05-07 21:30:00,59.7,53.1,29.91,WNW,291,1.6,1.6,73,0.00,,,0.14,dv,2013-05-08 01:30:00,
2013-05-07 21:35:00,59.5,53.2,29.91,West,270,6.4,6.4,74,0.00,,,0.14,dv,2013-05-08 01:35:00,
2013-05-07 21:40:00,59.3,53.0,29.91,West,281,6.4,6.4,74,0.00,,,0.14,dv,2013-05-08 01:40:00,
2013-05-07 21:45:00,59.1,53.1,29.91,NNW,348,1.6,1.6,75,0.00,,,0.14,dv,2013-05-08 01:45:00,
2013-05-07 21:50:00,59.0,53.3,29.92,ENE,66,4.8,4.8,76,0.00,,,0.14,dv,2013-05-08 01:50:00,
2013-05-07 21:55:00,58.9,53.2,29.92,NW,307,4.8,4.8,76,0.00,,,0.14,dv,2013-05-08 01:55:00,
2013-05-07 22:00:00,58.7,53.0,29.92,NNE,33,3.2,3.2,76,0.00,,,0.14,dv,2013-05-08 02:00:00,
2013-05-07 22:05:00,58.6,53.4,29.92,West,270,3.2,3.2,78,0.00,,,0.14,dv,2013-05-08 02:05:00,
2013-05-07 22:10:00,58.5,53.3,29.92,West,270,1.6,1.6,78,0.00,,,0.14,dv,2013-05-08 02:10:00,
2013-05-07 22:15:00,58.3,53.1,29.92,West,275,3.2,3.2,78,0.00,,,0.14,dv,2013-05-08 02:15:00,
2013-05-07 22:20:00,58.2,53.3,29.93,WSW,257,4.8,4.8,79,0.00,,,0.14,dv,2013-05-08 02:20:00,
2013-05-07 22:25:00,58.1,53.2,29.92,NW,307,0.0,0.0,79,0.00,,,0.14,dv,2013-05-08 02:25:00,
2013-05-07 22:30:00,57.9,53.3,29.92,NW,321,0.0,0.0,80,0.00,,,0.14,dv,2013-05-08 02:30:00,
2013-05-07 22:35:00,57.8,53.2,29.92,North,10,0.0,0.0,80,0.00,,,0.14,dv,2013-05-08 02:35:00,
2013-05-07 22:40:00,57.7,53.1,29.92,ENE,77,1.6,1.6,80,0.00,,,0.14,dv,2013-05-08 02:40:00,
2013-05-07 22:45:00,57.6,53.2,29.92,ENE,76,0.0,0.0,81,0.00,,,0.14,dv,2013-05-08 02:45:00,
2013-05-07 22:50:00,57.5,53.1,29.92,ENE,77,0.0,0.0,81,0.00,,,0.14,dv,2013-05-08 02:50:00,
2013-05-07 22:55:00,57.3,52.9,29.92,ENE,77,0.0,0.0,81,0.00,,,0.14,dv,2013-05-08 02:55:00,
2013-05-07 23:00:00,57.3,52.9,29.93,ENE,77,0.0,0.0,81,0.00,,,0.14,dv,2013-05-08 03:00:00,
2013-05-07 23:05:00,57.2,53.1,29.92,ENE,77,0.0,0.0,82,0.00,,,0.14,dv,2013-05-08 03:05:00,
2013-05-07 23:10:00,57.1,53.0,29.92,ENE,77,1.6,1.6,82,0.00,,,0.14,dv,2013-05-08 03:10:00,
2013-05-07 23:15:00,57.1,53.0,29.92,ENE,77,0.0,0.0,82,0.00,,,0.14,dv,2013-05-08 03:15:00,
2013-05-07 23:20:00,57.0,53.1,29.93,ENE,77,0.0,0.0,83,0.00,,,0.14,dv,2013-05-08 03:20:00,
2013-05-07 23:25:00,56.9,53.0,29.92,ENE,77,0.0,0.0,83,0.00,,,0.14,dv,2013-05-08 03:25:00,
2013-05-07 23:30:00,56.8,52.9,29.92,ENE,77,0.0,0.0,83,0.00,,,0.14,dv,2013-05-08 03:30:00,
2013-05-07 23:35:00,56.7,53.1,29.92,ENE,77,0.0,0.0,84,0.00,,,0.14,dv,2013-05-08 03:35:00,
2013-05-07 23:40:00,56.6,53.0,29.92,ENE,76,0.0,0.0,84,0.00,,,0.14,dv,2013-05-08 03:40:00,
2013-05-07 23:45:00,56.4,52.8,29.92,ENE,77,0.0,0.0,84,0.00,,,0.14,dv,2013-05-08 03:45:00,
2013-05-07 23:50:00,56.3,52.7,29.92,ENE,77,0.0,0.0,84,0.00,,,0.14,dv,2013-05-08 03:50:00,
2013-05-07 23:55:00,56.2,52.6,29.92,ENE,78,0.0,0.0,84,0.00,,,0.14,dv,2013-05-08 03:55:00,